Time,TemperatureF,DewpointF,PressureIn,WindDirection,WindDirectionDegrees,WindSpeedMPH,WindSpeedGustMPH,Humidity,HourlyPrecipIn,Conditions,Clouds,dailyrainin,SoftwareType,DateUTC
2013-10-19 05:53:00,43.5,36.9,29.68,North,-999,0.0,0.0,77,0.00,,,-99.99,FreeWX 2.04,2013-10-19 09:53:00,
2013-10-19 07:46:00,44.1,37.6,29.65,North,-999,0.0,0.0,78,0.00,,,-99.99,FreeWX 2.04,2013-10-19 11:46:00,
2013-10-19 07:53:00,44.1,37.6,29.65,North,-999,0.0,0.0,78,0.00,,,-99.99,FreeWX 2.04,2013-10-19 11:53:00,
2013-10-19 07:58:00,44.1,37.6,29.65,North,-999,0.0,4.0,78,0.00,,,-99.99,FreeWX 2.04,2013-10-19 11:58:00,
2013-10-19 08:03:00,44.1,37.9,29.65,North,-999,0.0,4.5,79,0.00,,,-99.99,FreeWX 2.04,2013-10-19 12:03:00,
2013-10-19 08:08:00,44.1,37.9,29.65,North,-999,0.0,0.0,79,0.00,,,-99.99,FreeWX 2.04,2013-10-19 12:08:00,
2013-10-19 08:13:00,44.2,38.1,29.65,North,-999,0.0,0.0,79,0.00,,,-99.99,FreeWX 2.04,2013-10-19 12:13:00,
2013-10-19 08:18:00,44.2,38.1,29.65,North,-999,0.0,0.0,79,0.00,,,-99.99,FreeWX 2.04,2013-10-19 12:18:00,
2013-10-19 08:23:00,44.2,38.1,29.65,North,-999,0.0,0.0,79,0.00,,,-99.99,FreeWX 2.04,2013-10-19 12:23:00,
2013-10-19 08:28:00,44.2,38.1,29.65,North,-999,0.0,0.0,79,0.00,,,-99.99,FreeWX 2.04,2013-10-19 12:28:00,
2013-10-19 08:33:00,44.2,38.1,29.65,North,-999,0.0,3.6,79,0.00,,,-99.99,FreeWX 2.04,2013-10-19 12:33:00,
2013-10-19 08:38:00,44.2,38.1,29.65,North,-999,0.0,2.7,79,0.00,,,-99.99,FreeWX 2.04,2013-10-19 12:38:00,
2013-10-19 08:43:00,44.4,38.3,29.65,North,-999,0.0,2.7,79,0.00,,,-99.99,FreeWX 2.04,2013-10-19 12:43:00,
2013-10-19 08:48:00,44.4,38.3,29.65,North,-999,0.0,0.0,79,0.00,,,-99.99,FreeWX 2.04,2013-10-19 12:48:00,
2013-10-19 08:53:00,44.6,38.5,29.65,North,-999,0.0,0.0,79,0.00,,,-99.99,FreeWX 2.04,2013-10-19 12:53:00,
2013-10-19 08:58:00,44.6,38.8,29.65,North,-999,0.0,0.0,80,0.00,,,-99.99,FreeWX 2.04,2013-10-19 12:58:00,
2013-10-19 09:03:00,44.8,39.0,29.65,North,-999,0.0,4.0,80,0.00,,,-99.99,FreeWX 2.04,2013-10-19 13:03:00,
2013-10-19 09:08:00,45.0,39.2,29.65,North,-999,0.0,4.5,80,0.00,,,-99.99,FreeWX 2.04,2013-10-19 13:08:00,
2013-10-19 09:13:00,45.5,39.7,29.65,North,-999,0.0,2.7,80,0.00,,,-99.99,FreeWX 2.04,2013-10-19 13:13:00,
2013-10-19 09:18:00,45.9,40.3,29.65,North,-999,0.0,0.0,81,0.00,,,-99.99,FreeWX 2.04,2013-10-19 13:18:00,
2013-10-19 09:23:00,46.4,40.8,29.65,North,-999,0.0,0.0,81,0.00,,,-99.99,FreeWX 2.04,2013-10-19 13:23:00,
2013-10-19 09:28:00,46.9,41.7,29.65,North,-999,0.0,3.6,82,0.00,,,-99.99,FreeWX 2.04,2013-10-19 13:28:00,
2013-10-19 09:33:00,47.5,42.3,29.65,North,-999,0.0,5.4,82,0.00,,,-99.99,FreeWX 2.04,2013-10-19 13:33:00,
2013-10-19 09:38:00,47.5,42.3,29.65,North,-999,0.0,3.6,82,0.00,,,-99.99,FreeWX 2.04,2013-10-19 13:38:00,
2013-10-19 09:43:00,47.5,42.3,29.65,North,-999,0.0,4.5,82,0.00,,,-99.99,FreeWX 2.04,2013-10-19 13:43:00,
2013-10-19 09:48:00,47.1,41.5,29.65,North,-999,0.0,4.9,81,0.00,,,-99.99,FreeWX 2.04,2013-10-19 13:48:00,
2013-10-19 09:53:00,47.1,41.5,29.62,North,-999,0.0,4.0,81,0.00,,,-99.99,FreeWX 2.04,2013-10-19 13:53:00,
2013-10-19 09:58:00,47.3,41.7,29.62,North,-999,0.0,4.0,81,0.00,,,-99.99,FreeWX 2.04,2013-10-19 13:58:00,
2013-10-19 10:03:00,47.5,41.9,29.62,North,-999,0.0,0.0,81,0.00,,,-99.99,FreeWX 2.04,2013-10-19 14:03:00,
2013-10-19 10:08:00,47.5,41.9,29.62,North,-999,0.0,5.4,81,0.00,,,-99.99,FreeWX 2.04,2013-10-19 14:08:00,
2013-10-19 10:13:00,47.8,42.3,29.62,West,270,2.0,4.9,81,0.00,,,-99.99,FreeWX 2.04,2013-10-19 14:13:00,
2013-10-19 10:18:00,48.2,43.0,29.62,West,269,2.0,4.0,82,0.00,,,-99.99,FreeWX 2.04,2013-10-19 14:18:00,
2013-10-19 10:23:00,48.6,43.3,29.62,North,-999,0.0,4.0,82,0.00,,,-99.99,FreeWX 2.04,2013-10-19 14:23:00,
2013-10-19 10:28:00,48.7,43.5,29.62,North,-999,0.0,0.0,82,0.00,,,-99.99,FreeWX 2.04,2013-10-19 14:28:00,
2013-10-19 10:33:00,48.9,43.7,29.62,North,-999,0.0,4.9,82,0.00,,,-99.99,FreeWX 2.04,2013-10-19 14:33:00,
2013-10-19 10:38:00,49.1,43.5,29.62,WNW,286,1.0,4.5,81,0.00,,,-99.99,FreeWX 2.04,2013-10-19 14:38:00,
2013-10-19 10:43:00,49.8,44.6,29.62,WSW,242,1.0,3.6,82,0.00,,,-99.99,FreeWX 2.04,2013-10-19 14:43:00,
2013-10-19 10:48:00,49.8,44.2,29.62,SW,217,1.0,5.8,81,0.00,,,-99.99,FreeWX 2.04,2013-10-19 14:48:00,
2013-10-19 10:54:00,49.1,43.2,29.62,WSW,247,2.0,5.4,80,0.00,,,-99.99,FreeWX 2.04,2013-10-19 14:54:00,
2013-10-19 10:59:00,48.9,42.6,29.62,West,262,2.0,4.5,79,0.00,,,-99.99,FreeWX 2.04,2013-10-19 14:59:00,
2013-10-19 11:04:00,48.7,42.3,29.62,West,278,1.0,4.5,78,0.00,,,-99.99,FreeWX 2.04,2013-10-19 15:04:00,
2013-10-19 11:09:00,48.7,42.3,29.62,WNW,291,1.0,4.5,78,0.00,,,-99.99,FreeWX 2.04,2013-10-19 15:09:00,
2013-10-19 11:14:00,48.7,42.3,29.62,North,-999,0.0,4.0,78,0.00,,,-99.99,FreeWX 2.04,2013-10-19 15:14:00,
2013-10-19 11:19:00,48.9,42.1,29.62,North,-999,0.0,4.5,77,0.00,,,-99.99,FreeWX 2.04,2013-10-19 15:19:00,
2013-10-19 11:24:00,48.7,41.9,29.62,WNW,298,1.0,5.4,77,0.00,,,-99.99,FreeWX 2.04,2013-10-19 15:24:00,
2013-10-19 11:29:00,49.1,41.9,29.62,West,276,1.0,4.5,76,0.00,,,-99.99,FreeWX 2.04,2013-10-19 15:29:00,
2013-10-19 11:34:00,48.9,41.7,29.62,West,272,1.0,5.4,76,0.00,,,-99.99,FreeWX 2.04,2013-10-19 15:34:00,
2013-10-19 11:39:00,48.7,41.2,29.62,WNW,286,2.0,5.4,75,0.00,,,-99.99,FreeWX 2.04,2013-10-19 15:39:00,
2013-10-19 11:44:00,48.6,40.6,29.62,WNW,289,2.0,4.9,74,0.00,,,-99.99,FreeWX 2.04,2013-10-19 15:44:00,
2013-10-19 11:49:00,47.8,39.2,29.62,WNW,291,2.0,4.9,72,0.00,,,-99.99,FreeWX 2.04,2013-10-19 15:49:00,
2013-10-19 11:54:00,47.1,37.8,29.62,West,270,2.0,6.7,70,0.04,,,-99.99,FreeWX 2.04,2013-10-19 15:54:00,
2013-10-19 11:59:00,46.6,37.0,29.62,WNW,287,2.0,7.8,69,0.04,,,-99.99,FreeWX 2.04,2013-10-19 15:59:00,
2013-10-19 12:04:00,46.0,36.5,29.62,WNW,286,3.0,5.4,69,0.04,,,-99.99,FreeWX 2.04,2013-10-19 16:04:00,
2013-10-19 12:09:00,45.5,35.6,29.62,West,281,2.0,4.9,68,0.04,,,-99.99,FreeWX 2.04,2013-10-19 16:09:00,
2013-10-19 12:14:00,45.5,36.0,29.62,WNW,283,1.0,3.6,69,0.08,,,-99.99,FreeWX 2.04,2013-10-19 16:14:00,
2013-10-19 12:19:00,45.7,36.5,29.62,North,-999,0.0,0.0,70,0.08,,,-99.99,FreeWX 2.04,2013-10-19 16:19:00,
2013-10-19 12:24:00,45.7,36.5,29.62,North,-999,0.0,4.9,70,0.08,,,-99.99,FreeWX 2.04,2013-10-19 16:24:00,
2013-10-19 12:29:00,45.5,36.3,29.62,West,263,1.0,4.9,70,0.08,,,-99.99,FreeWX 2.04,2013-10-19 16:29:00,
2013-10-19 12:34:00,45.3,36.5,29.62,West,268,1.0,4.9,71,0.08,,,-99.99,FreeWX 2.04,2013-10-19 16:34:00,
2013-10-19 12:39:00,45.3,36.5,29.62,North,-999,0.0,4.0,71,0.08,,,-99.99,FreeWX 2.04,2013-10-19 16:39:00,
2013-10-19 12:44:00,45.3,36.9,29.62,North,-999,0.0,5.4,72,0.08,,,-99.99,FreeWX 2.04,2013-10-19 16:44:00,
2013-10-19 12:49:00,45.9,37.4,29.62,WNW,282,2.0,4.5,72,0.08,,,-99.99,FreeWX 2.04,2013-10-19 16:49:00,
2013-10-19 12:54:00,46.0,37.9,29.62,West,264,2.0,4.9,73,0.04,,,-99.99,FreeWX 2.04,2013-10-19 16:54:00,
2013-10-19 12:59:00,46.2,38.1,29.62,WNW,282,2.0,4.0,73,0.04,,,-99.99,FreeWX 2.04,2013-10-19 16:59:00,
2013-10-19 13:04:00,46.6,38.7,29.62,WNW,295,1.0,4.5,74,0.04,,,-99.99,FreeWX 2.04,2013-10-19 17:04:00,
2013-10-19 13:09:00,46.6,38.7,29.62,West,274,1.0,4.0,74,0.04,,,-99.99,FreeWX 2.04,2013-10-19 17:09:00,
2013-10-19 13:14:00,46.0,37.9,29.62,WNW,286,1.0,5.4,73,0.00,,,-99.99,FreeWX 2.04,2013-10-19 17:14:00,
2013-10-19 13:19:00,45.7,37.2,29.62,WNW,300,2.0,4.5,72,0.00,,,-99.99,FreeWX 2.04,2013-10-19 17:19:00,
2013-10-19 13:24:00,45.5,37.4,29.62,WSW,251,1.0,4.0,73,0.00,,,-99.99,FreeWX 2.04,2013-10-19 17:24:00,
2013-10-19 13:29:00,45.7,37.6,29.62,North,-999,0.0,0.0,73,0.00,,,-99.99,FreeWX 2.04,2013-10-19 17:29:00,
2013-10-19 13:34:00,45.9,38.1,29.62,North,-999,0.0,4.5,74,0.00,,,-99.99,FreeWX 2.04,2013-10-19 17:34:00,
2013-10-19 13:39:00,45.3,37.2,29.62,North,-999,0.0,4.0,73,0.00,,,-99.99,FreeWX 2.04,2013-10-19 17:39:00,
2013-10-19 13:44:00,45.5,37.8,29.62,North,-999,0.0,3.1,74,0.00,,,-99.99,FreeWX 2.04,2013-10-19 17:44:00,
2013-10-19 13:49:00,45.5,37.8,29.62,North,-999,0.0,0.0,74,0.00,,,-99.99,FreeWX 2.04,2013-10-19 17:49:00,
2013-10-19 13:54:00,46.0,38.5,29.59,North,-999,0.0,0.0,75,0.00,,,-99.99,FreeWX 2.04,2013-10-19 17:54:00,
2013-10-19 13:59:00,46.6,39.0,29.59,North,-999,0.0,3.1,75,0.00,,,-99.99,FreeWX 2.04,2013-10-19 17:59:00,
2013-10-19 14:04:00,46.9,39.7,29.59,North,-999,0.0,0.0,76,0.00,,,-99.99,FreeWX 2.04,2013-10-19 18:04:00,
2013-10-19 14:09:00,46.9,39.4,29.59,North,-999,0.0,0.0,75,0.00,,,-99.99,FreeWX 2.04,2013-10-19 18:09:00,
2013-10-19 14:14:00,47.5,39.9,29.59,North,-999,0.0,0.0,75,0.00,,,-99.99,FreeWX 2.04,2013-10-19 18:14:00,
2013-10-19 14:19:00,47.7,40.5,29.59,North,-999,0.0,3.1,76,0.00,,,-99.99,FreeWX 2.04,2013-10-19 18:19:00,
2013-10-19 14:24:00,48.2,41.0,29.59,North,-999,0.0,3.1,76,0.00,,,-99.99,FreeWX 2.04,2013-10-19 18:24:00,
2013-10-19 14:29:00,49.8,43.2,29.59,North,-999,0.0,0.0,78,0.00,,,-99.99,FreeWX 2.04,2013-10-19 18:29:00,
2013-10-19 14:34:00,50.7,44.4,29.59,North,-999,0.0,5.8,79,0.00,,,-99.99,FreeWX 2.04,2013-10-19 18:34:00,
2013-10-19 14:39:00,50.7,44.1,29.59,North,-999,0.0,4.5,78,0.00,,,-99.99,FreeWX 2.04,2013-10-19 18:39:00,
2013-10-19 14:44:00,51.1,44.1,29.59,North,-999,0.0,3.6,77,0.00,,,-99.99,FreeWX 2.04,2013-10-19 18:44:00,
2013-10-19 14:49:00,51.1,44.1,29.59,SSW,204,1.0,4.9,77,0.00,,,-99.99,FreeWX 2.04,2013-10-19 18:49:00,
2013-10-19 14:54:00,50.2,42.6,29.59,SSE,147,2.0,7.8,75,0.00,,,-99.99,FreeWX 2.04,2013-10-19 18:54:00,
2013-10-19 14:59:00,49.8,42.3,29.59,SSW,206,1.0,3.6,75,0.00,,,-99.99,FreeWX 2.04,2013-10-19 18:59:00,
2013-10-19 15:04:00,49.5,41.9,29.59,North,-999,0.0,0.0,75,0.00,,,-99.99,FreeWX 2.04,2013-10-19 19:04:00,
2013-10-19 15:09:00,49.5,41.9,29.59,North,-999,0.0,7.8,75,0.00,,,-99.99,FreeWX 2.04,2013-10-19 19:09:00,
2013-10-19 15:14:00,49.1,41.5,29.59,WSW,245,1.0,5.4,75,0.00,,,-99.99,FreeWX 2.04,2013-10-19 19:14:00,
2013-10-19 15:19:00,48.9,41.4,29.59,WSW,248,1.0,4.0,75,0.00,,,-99.99,FreeWX 2.04,2013-10-19 19:19:00,
2013-10-19 15:24:00,48.9,41.4,29.59,North,-999,0.0,4.0,75,0.00,,,-99.99,FreeWX 2.04,2013-10-19 19:24:00,
2013-10-19 15:29:00,48.9,41.4,29.59,SW,227,1.0,6.3,75,0.00,,,-99.99,FreeWX 2.04,2013-10-19 19:29:00,
2013-10-19 15:34:00,48.9,41.4,29.59,South,183,1.0,4.0,75,0.00,,,-99.99,FreeWX 2.04,2013-10-19 19:34:00,
2013-10-19 15:39:00,48.7,41.2,29.59,South,186,1.0,3.6,75,0.00,,,-99.99,FreeWX 2.04,2013-10-19 19:39:00,
2013-10-19 15:44:00,48.0,39.7,29.59,WNW,285,1.0,4.5,73,0.00,,,-99.99,FreeWX 2.04,2013-10-19 19:44:00,
2013-10-19 15:49:00,47.5,39.2,29.59,WNW,292,2.0,5.4,73,0.00,,,-99.99,FreeWX 2.04,2013-10-19 19:49:00,
2013-10-19 15:54:00,47.1,38.8,29.59,West,279,1.0,3.6,73,0.00,,,-99.99,FreeWX 2.04,2013-10-19 19:54:00,
2013-10-19 15:59:00,46.9,38.7,29.59,West,261,1.0,4.0,73,0.00,,,-99.99,FreeWX 2.04,2013-10-19 19:59:00,
2013-10-19 16:04:00,46.8,38.5,29.59,WSW,240,1.0,4.0,73,0.00,,,-99.99,FreeWX 2.04,2013-10-19 20:04:00,
2013-10-19 16:09:00,47.5,39.2,29.59,North,-999,0.0,4.5,73,0.00,,,-99.99,FreeWX 2.04,2013-10-19 20:09:00,
2013-10-19 16:14:00,48.7,41.2,29.59,North,-999,0.0,4.5,75,0.00,,,-99.99,FreeWX 2.04,2013-10-19 20:14:00,
2013-10-19 16:19:00,48.4,40.5,29.59,SW,221,1.0,4.9,74,0.00,,,-99.99,FreeWX 2.04,2013-10-19 20:19:00,
2013-10-19 16:24:00,48.0,39.4,29.59,West,274,3.0,6.3,72,0.00,,,-99.99,FreeWX 2.04,2013-10-19 20:24:00,
2013-10-19 16:29:00,48.0,39.0,29.59,West,265,3.0,5.8,71,0.00,,,-99.99,FreeWX 2.04,2013-10-19 20:29:00,
2013-10-19 16:34:00,47.7,37.9,29.59,West,264,2.0,5.4,69,0.00,,,-99.99,FreeWX 2.04,2013-10-19 20:34:00,
2013-10-19 16:39:00,47.1,36.3,29.59,West,259,2.0,6.7,66,0.00,,,-99.99,FreeWX 2.04,2013-10-19 20:39:00,
2013-10-19 16:44:00,46.9,35.4,29.59,WSW,243,1.0,4.9,64,0.00,,,-99.99,FreeWX 2.04,2013-10-19 20:44:00,
2013-10-19 16:49:00,46.6,34.7,29.59,North,-999,0.0,4.5,63,0.00,,,-99.99,FreeWX 2.04,2013-10-19 20:49:00,
2013-10-19 16:54:00,46.6,34.3,29.59,North,-999,0.0,3.1,62,0.00,,,-99.99,FreeWX 2.04,2013-10-19 20:54:00,
2013-10-19 16:59:00,46.6,33.8,29.59,West,270,1.0,5.4,61,0.00,,,-99.99,FreeWX 2.04,2013-10-19 20:59:00,
2013-10-19 17:04:00,46.6,33.8,29.59,SW,233,1.0,4.5,61,0.00,,,-99.99,FreeWX 2.04,2013-10-19 21:04:00,
2013-10-19 17:09:00,46.6,33.4,29.59,SSW,198,1.0,4.5,60,0.00,,,-99.99,FreeWX 2.04,2013-10-19 21:09:00,
2013-10-19 17:14:00,46.6,33.4,29.59,SSW,210,1.0,4.0,60,0.00,,,-99.99,FreeWX 2.04,2013-10-19 21:14:00,
2013-10-19 17:19:00,46.4,32.9,29.59,SW,233,1.0,4.0,59,0.00,,,-99.99,FreeWX 2.04,2013-10-19 21:19:00,
2013-10-19 17:24:00,46.0,32.5,29.59,North,-999,0.0,4.5,59,0.00,,,-99.99,FreeWX 2.04,2013-10-19 21:24:00,
2013-10-19 17:29:00,45.9,32.0,29.59,North,-999,0.0,3.1,58,0.00,,,-99.99,FreeWX 2.04,2013-10-19 21:29:00,
2013-10-19 17:34:00,45.5,31.6,29.59,North,-999,0.0,4.5,58,0.00,,,-99.99,FreeWX 2.04,2013-10-19 21:34:00,
2013-10-19 17:39:00,45.5,31.6,29.62,West,266,1.0,5.4,58,0.00,,,-99.99,FreeWX 2.04,2013-10-19 21:39:00,
2013-10-19 17:44:00,45.3,30.9,29.62,North,-999,0.0,0.0,57,0.00,,,-99.99,FreeWX 2.04,2013-10-19 21:44:00,
2013-10-19 17:49:00,45.3,31.5,29.62,North,-999,0.0,0.0,58,0.00,,,-99.99,FreeWX 2.04,2013-10-19 21:49:00,
2013-10-19 17:54:00,45.7,31.8,29.59,North,-999,0.0,7.4,58,0.00,,,-99.99,FreeWX 2.04,2013-10-19 21:54:00,
2013-10-19 17:59:00,46.4,32.9,29.59,North,-999,0.0,4.5,59,0.00,,,-99.99,FreeWX 2.04,2013-10-19 21:59:00,
2013-10-19 18:04:00,46.4,32.4,29.59,WSW,255,1.0,5.4,58,0.00,,,-99.99,FreeWX 2.04,2013-10-19 22:04:00,
2013-10-19 18:09:00,45.9,31.1,29.62,North,-999,0.0,3.1,56,0.00,,,-99.99,FreeWX 2.04,2013-10-19 22:09:00,
2013-10-19 18:14:00,45.3,30.6,29.62,North,-999,0.0,0.0,56,0.00,,,-99.99,FreeWX 2.04,2013-10-19 22:14:00,
2013-10-19 18:19:00,44.8,29.7,29.62,North,-999,0.0,0.0,55,0.00,,,-99.99,FreeWX 2.04,2013-10-19 22:19:00,
2013-10-19 18:24:00,44.2,29.1,29.62,North,-999,0.0,0.0,55,0.00,,,-99.99,FreeWX 2.04,2013-10-19 22:24:00,
2013-10-19 18:29:00,43.5,28.4,29.62,North,-999,0.0,0.0,55,0.00,,,-99.99,FreeWX 2.04,2013-10-19 22:29:00,
2013-10-19 18:34:00,43.2,28.0,29.62,North,-999,0.0,0.0,55,0.00,,,-99.99,FreeWX 2.04,2013-10-19 22:34:00,
2013-10-19 18:39:00,42.8,27.7,29.62,North,-999,0.0,0.0,55,0.00,,,-99.99,FreeWX 2.04,2013-10-19 22:39:00,
2013-10-19 18:44:00,42.4,27.5,29.62,North,-999,0.0,0.0,55,0.00,,,-99.99,FreeWX 2.04,2013-10-19 22:44:00,
2013-10-19 18:49:00,42.3,27.3,29.62,North,-999,0.0,0.0,55,0.00,,,-99.99,FreeWX 2.04,2013-10-19 22:49:00,
2013-10-19 18:54:00,42.1,27.1,29.62,North,-999,0.0,0.0,55,0.00,,,-99.99,FreeWX 2.04,2013-10-19 22:54:00,
2013-10-19 18:59:00,41.7,27.1,29.62,North,-999,0.0,0.0,56,0.00,,,-99.99,FreeWX 2.04,2013-10-19 22:59:00,
2013-10-19 19:04:00,41.4,26.8,29.62,North,-999,0.0,0.0,56,0.00,,,-99.99,FreeWX 2.04,2013-10-19 23:04:00,
2013-10-19 19:09:00,41.2,26.6,29.62,North,-999,0.0,0.0,56,0.00,,,-99.99,FreeWX 2.04,2013-10-19 23:09:00,
2013-10-19 19:14:00,41.0,27.0,29.62,North,-999,0.0,0.0,57,0.00,,,-99.99,FreeWX 2.04,2013-10-19 23:14:00,
2013-10-19 19:19:00,41.2,27.1,29.62,North,-999,0.0,0.0,57,0.00,,,-99.99,FreeWX 2.04,2013-10-19 23:19:00,
2013-10-19 19:24:00,41.2,27.5,29.62,North,-999,0.0,0.0,58,0.00,,,-99.99,FreeWX 2.04,2013-10-19 23:24:00,
2013-10-19 19:29:00,41.2,27.5,29.62,North,-999,0.0,0.0,58,0.00,,,-99.99,FreeWX 2.04,2013-10-19 23:29:00,
2013-10-19 19:34:00,41.2,27.5,29.62,North,-999,0.0,0.0,58,0.00,,,-99.99,FreeWX 2.04,2013-10-19 23:34:00,
2013-10-19 19:39:00,41.4,28.0,29.65,North,-999,0.0,0.0,59,0.00,,,-99.99,FreeWX 2.04,2013-10-19 23:39:00,
2013-10-19 19:44:00,41.2,27.5,29.65,North,-999,0.0,0.0,58,0.00,,,-99.99,FreeWX 2.04,2013-10-19 23:44:00,
2013-10-19 19:49:00,41.2,28.0,29.65,North,-999,0.0,0.0,59,0.00,,,-99.99,FreeWX 2.04,2013-10-19 23:49:00,
2013-10-19 19:54:00,40.8,27.1,29.65,North,-999,0.0,3.6,58,0.00,,,-99.99,FreeWX 2.04,2013-10-19 23:54:00,
2013-10-19 19:59:00,40.6,27.5,29.65,North,-999,0.0,0.0,59,0.00,,,-99.99,FreeWX 2.04,2013-10-19 23:59:00,
2013-10-19 20:04:00,40.5,27.3,29.65,North,-999,0.0,0.0,59,0.00,,,-99.99,FreeWX 2.04,2013-10-20 00:04:00,
2013-10-19 20:09:00,40.5,27.3,29.65,North,-999,0.0,0.0,59,0.00,,,-99.99,FreeWX 2.04,2013-10-20 00:09:00,
2013-10-19 20:14:00,40.3,27.1,29.65,North,-999,0.0,0.0,59,0.00,,,-99.99,FreeWX 2.04,2013-10-20 00:14:00,
2013-10-19 20:19:00,40.3,27.5,29.65,North,-999,0.0,0.0,60,0.00,,,-99.99,FreeWX 2.04,2013-10-20 00:19:00,
2013-10-19 20:24:00,40.1,27.3,29.65,North,-999,0.0,0.0,60,0.00,,,-99.99,FreeWX 2.04,2013-10-20 00:24:00,
2013-10-19 20:29:00,39.9,27.1,29.65,North,-999,0.0,0.0,60,0.00,,,-99.99,FreeWX 2.04,2013-10-20 00:29:00,
2013-10-19 20:34:00,39.9,27.5,29.65,North,-999,0.0,0.0,61,0.00,,,-99.99,FreeWX 2.04,2013-10-20 00:34:00,
2013-10-19 20:39:00,39.9,27.5,29.65,North,-999,0.0,0.0,61,0.00,,,-99.99,FreeWX 2.04,2013-10-20 00:39:00,
2013-10-19 20:44:00,39.7,27.3,29.65,North,-999,0.0,0.0,61,0.00,,,-99.99,FreeWX 2.04,2013-10-20 00:44:00,
2013-10-19 20:49:00,39.6,27.3,29.65,North,-999,0.0,0.0,61,0.00,,,-99.99,FreeWX 2.04,2013-10-20 00:49:00,
2013-10-19 20:54:00,39.4,27.1,29.65,North,-999,0.0,0.0,61,0.00,,,-99.99,FreeWX 2.04,2013-10-20 00:54:00,
2013-10-19 20:59:00,39.4,27.5,29.65,North,-999,0.0,0.0,62,0.00,,,-99.99,FreeWX 2.04,2013-10-20 00:59:00,
2013-10-19 21:04:00,39.4,27.5,29.65,North,-999,0.0,0.0,62,0.00,,,-99.99,FreeWX 2.04,2013-10-20 01:04:00,
2013-10-19 21:09:00,39.4,27.5,29.65,North,-999,0.0,0.0,62,0.00,,,-99.99,FreeWX 2.04,2013-10-20 01:09:00,
2013-10-19 21:14:00,39.2,27.3,29.65,North,-999,0.0,0.0,62,0.00,,,-99.99,FreeWX 2.04,2013-10-20 01:14:00,
2013-10-19 21:19:00,39.2,27.7,29.65,North,-999,0.0,0.0,63,0.00,,,-99.99,FreeWX 2.04,2013-10-20 01:19:00,
2013-10-19 21:24:00,39.4,27.9,29.65,North,-999,0.0,0.0,63,0.00,,,-99.99,FreeWX 2.04,2013-10-20 01:24:00,
2013-10-19 21:29:00,39.4,28.2,29.65,North,-999,0.0,0.0,64,0.00,,,-99.99,FreeWX 2.04,2013-10-20 01:29:00,
2013-10-19 21:34:00,39.6,28.4,29.65,North,-999,0.0,0.0,64,0.00,,,-99.99,FreeWX 2.04,2013-10-20 01:34:00,
2013-10-19 21:39:00,39.6,28.4,29.65,North,-999,0.0,0.0,64,0.00,,,-99.99,FreeWX 2.04,2013-10-20 01:39:00,
2013-10-19 21:44:00,39.6,28.4,29.65,North,-999,0.0,0.0,64,0.00,,,-99.99,FreeWX 2.04,2013-10-20 01:44:00,
2013-10-19 21:49:00,39.6,28.4,29.65,North,-999,0.0,0.0,64,0.00,,,-99.99,FreeWX 2.04,2013-10-20 01:49:00,
2013-10-19 21:54:00,39.4,28.2,29.65,North,-999,0.0,0.0,64,0.00,,,-99.99,FreeWX 2.04,2013-10-20 01:54:00,